CPX775 Details

Departure: Liège Airport (EBLG)
Arrival: Ben Gurion International Airport (LLBG) at N/A
Route: LIRSU UZ315 RIDAR UZ738 UNKEN TALAS UN130 MES UL609 SOLIN GODED2
Notes:


Current Weather Information
EBLG 231220Z 05004KT 010V090 CAVOK 17/12 Q1013 NOSIG
LLBG 231320Z 26007KT 230V310 9999 FEW030 26/15 Q1009 NOSIG=